Springview, Nebraska
Current Conditions -  °F | °C
As of 11:55 PM on Wednesday 22 Oct 2014 (Local Time) from KANW Reporting Station
Clear Clear  
Wind Chill: 38°   Ceiling: Unl
Heat Index: 41°   Visibility: 10mi
Dew Point: 38°   Wind: 5mph
Humidity: 91%   Direction: 200°SSW
Pressure: 30.05"   Gusts: NA
Location:  42.82°N, 99.75°W
Report Text: KANW 230455Z AUTO 20004KT 10SM CLR 05/03 A3005 RMK AO2 T00480034
Loading
Personal Weather Stations






























Interactive Weather Map
Tropical Storm Tracking
New forecast layout! Learn more

10-Day Weather Forecast

Advertisements
Track Severe Weather on mobile